sensor_id;sensor_type;location;lat;lon;timestamp;P1;durP1;ratioP1;P2;durP2;ratioP2
22543;SDS011;11438;52.044;8.716;2022-10-19T00:01:52;11.15;;;1.60;;
22543;SDS011;11438;52.044;8.716;2022-10-19T00:04:18;2.75;;;1.40;;
22543;SDS011;11438;52.044;8.716;2022-10-19T00:06:44;3.33;;;1.38;;
22543;SDS011;11438;52.044;8.716;2022-10-19T00:09:11;3.80;;;1.35;;
22543;SDS011;11438;52.044;8.716;2022-10-19T00:11:39;3.17;;;1.33;;
22543;SDS011;11438;52.044;8.716;2022-10-19T00:14:08;2.47;;;1.60;;
22543;SDS011;11438;52.044;8.716;2022-10-19T00:16:38;4.78;;;1.80;;
22543;SDS011;11438;52.044;8.716;2022-10-19T00:19:05;3.42;;;1.75;;
22543;SDS011;11438;52.044;8.716;2022-10-19T00:21:33;4.53;;;1.95;;
22543;SDS011;11438;52.044;8.716;2022-10-19T00:23:59;3.40;;;2.03;;
22543;SDS011;11438;52.044;8.716;2022-10-19T00:26:25;4.95;;;1.98;;
22543;SDS011;11438;52.044;8.716;2022-10-19T00:28:52;4.45;;;2.10;;
22543;SDS011;11438;52.044;8.716;2022-10-19T00:31:18;5.85;;;2.70;;
22543;SDS011;11438;52.044;8.716;2022-10-19T00:33:45;3.55;;;2.13;;
22543;SDS011;11438;52.044;8.716;2022-10-19T00:36:19;2.75;;;1.60;;
22543;SDS011;11438;52.044;8.716;2022-10-19T00:38:55;2.75;;;1.50;;
22543;SDS011;11438;52.044;8.716;2022-10-19T00:41:23;3.83;;;1.60;;
22543;SDS011;11438;52.044;8.716;2022-10-19T00:46:28;3.08;;;1.70;;
22543;SDS011;11438;52.044;8.716;2022-10-19T00:48:59;2.00;;;1.70;;
22543;SDS011;11438;52.044;8.716;2022-10-19T00:51:28;3.00;;;2.05;;
22543;SDS011;11438;52.044;8.716;2022-10-19T00:53:56;4.50;;;1.90;;
22543;SDS011;11438;52.044;8.716;2022-10-19T00:56:22;2.33;;;1.88;;
22543;SDS011;11438;52.044;8.716;2022-10-19T00:58:48;1.45;;;1.25;;
22543;SDS011;11438;52.044;8.716;2022-10-19T01:01:18;3.22;;;1.55;;
22543;SDS011;11438;52.044;8.716;2022-10-19T01:03:46;1.70;;;1.42;;
22543;SDS011;11438;52.044;8.716;2022-10-19T01:06:12;2.30;;;1.48;;
22543;SDS011;11438;52.044;8.716;2022-10-19T01:08:40;4.03;;;1.90;;
22543;SDS011;11438;52.044;8.716;2022-10-19T01:11:14;3.42;;;1.80;;
22543;SDS011;11438;52.044;8.716;2022-10-19T01:13:55;4.32;;;1.80;;
22543;SDS011;11438;52.044;8.716;2022-10-19T01:16:36;6.13;;;1.90;;
22543;SDS011;11438;52.044;8.716;2022-10-19T01:19:13;4.05;;;1.88;;
22543;SDS011;11438;52.044;8.716;2022-10-19T01:32:40;3.92;;;2.00;;
22543;SDS011;11438;52.044;8.716;2022-10-19T01:35:33;2.83;;;1.80;;
22543;SDS011;11438;52.044;8.716;2022-10-19T01:38:31;3.17;;;2.08;;
22543;SDS011;11438;52.044;8.716;2022-10-19T01:41:12;4.93;;;1.92;;
22543;SDS011;11438;52.044;8.716;2022-10-19T01:43:44;2.92;;;1.77;;
22543;SDS011;11438;52.044;8.716;2022-10-19T01:46:42;5.18;;;2.00;;
22543;SDS011;11438;52.044;8.716;2022-10-19T01:51:44;3.42;;;1.90;;
22543;SDS011;11438;52.044;8.716;2022-10-19T01:54:18;2.30;;;1.70;;
22543;SDS011;11438;52.044;8.716;2022-10-19T01:56:45;3.20;;;2.08;;
22543;SDS011;11438;52.044;8.716;2022-10-19T01:59:13;2.20;;;1.80;;
22543;SDS011;11438;52.044;8.716;2022-10-19T02:01:42;4.60;;;2.05;;
22543;SDS011;11438;52.044;8.716;2022-10-19T02:04:11;2.80;;;2.00;;
22543;SDS011;11438;52.044;8.716;2022-10-19T02:06:39;6.65;;;2.10;;
22543;SDS011;11438;52.044;8.716;2022-10-19T02:09:05;10.95;;;2.33;;
22543;SDS011;11438;52.044;8.716;2022-10-19T02:11:31;3.15;;;2.15;;
22543;SDS011;11438;52.044;8.716;2022-10-19T02:14:04;4.03;;;2.47;;
22543;SDS011;11438;52.044;8.716;2022-10-19T02:16:35;6.68;;;2.22;;
22543;SDS011;11438;52.044;8.716;2022-10-19T02:19:06;9.50;;;2.35;;
22543;SDS011;11438;52.044;8.716;2022-10-19T02:21:34;4.47;;;2.35;;
22543;SDS011;11438;52.044;8.716;2022-10-19T02:23:59;2.67;;;2.13;;
22543;SDS011;11438;52.044;8.716;2022-10-19T02:26:25;4.35;;;2.05;;
22543;SDS011;11438;52.044;8.716;2022-10-19T02:28:52;3.53;;;1.90;;
22543;SDS011;11438;52.044;8.716;2022-10-19T02:31:19;4.35;;;1.80;;
22543;SDS011;11438;52.044;8.716;2022-10-19T02:33:45;2.17;;;1.90;;
22543;SDS011;11438;52.044;8.716;2022-10-19T02:36:11;2.88;;;2.05;;
22543;SDS011;11438;52.044;8.716;2022-10-19T02:38:37;2.58;;;1.80;;
22543;SDS011;11438;52.044;8.716;2022-10-19T02:41:22;2.60;;;2.05;;
22543;SDS011;11438;52.044;8.716;2022-10-19T02:43:53;2.83;;;1.90;;
22543;SDS011;11438;52.044;8.716;2022-10-19T02:46:45;2.70;;;1.90;;
22543;SDS011;11438;52.044;8.716;2022-10-19T02:49:10;2.75;;;1.90;;
22543;SDS011;11438;52.044;8.716;2022-10-19T02:51:38;2.30;;;1.90;;
22543;SDS011;11438;52.044;8.716;2022-10-19T02:54:19;3.10;;;1.90;;
22543;SDS011;11438;52.044;8.716;2022-10-19T02:56:45;3.85;;;1.90;;
22543;SDS011;11438;52.044;8.716;2022-10-19T02:59:10;3.50;;;1.77;;
22543;SDS011;11438;52.044;8.716;2022-10-19T03:01:36;4.72;;;2.00;;
22543;SDS011;11438;52.044;8.716;2022-10-19T03:04:01;5.50;;;2.03;;
22543;SDS011;11438;52.044;8.716;2022-10-19T03:06:27;3.75;;;2.20;;
22543;SDS011;11438;52.044;8.716;2022-10-19T03:08:52;3.00;;;2.00;;
22543;SDS011;11438;52.044;8.716;2022-10-19T03:11:18;2.70;;;1.85;;
22543;SDS011;11438;52.044;8.716;2022-10-19T03:13:43;2.85;;;1.90;;
22543;SDS011;11438;52.044;8.716;2022-10-19T03:16:10;4.30;;;2.63;;
22543;SDS011;11438;52.044;8.716;2022-10-19T03:18:36;4.15;;;2.30;;
22543;SDS011;11438;52.044;8.716;2022-10-19T03:21:03;4.40;;;2.58;;
22543;SDS011;11438;52.044;8.716;2022-10-19T03:23:33;3.38;;;2.33;;
22543;SDS011;11438;52.044;8.716;2022-10-19T03:25:59;6.35;;;2.05;;
22543;SDS011;11438;52.044;8.716;2022-10-19T03:28:25;4.47;;;2.35;;
22543;SDS011;11438;52.044;8.716;2022-10-19T03:30:51;5.53;;;2.30;;
22543;SDS011;11438;52.044;8.716;2022-10-19T03:33:17;6.57;;;2.63;;
22543;SDS011;11438;52.044;8.716;2022-10-19T03:35:42;5.25;;;2.13;;
22543;SDS011;11438;52.044;8.716;2022-10-19T03:38:08;3.95;;;2.53;;
22543;SDS011;11438;52.044;8.716;2022-10-19T03:40:33;3.33;;;2.30;;
22543;SDS011;11438;52.044;8.716;2022-10-19T03:42:59;6.18;;;2.33;;
22543;SDS011;11438;52.044;8.716;2022-10-19T03:45:24;3.75;;;2.38;;
22543;SDS011;11438;52.044;8.716;2022-10-19T03:47:50;4.70;;;2.33;;
22543;SDS011;11438;52.044;8.716;2022-10-19T03:50:16;7.13;;;2.50;;
22543;SDS011;11438;52.044;8.716;2022-10-19T03:52:42;5.82;;;2.25;;
22543;SDS011;11438;52.044;8.716;2022-10-19T03:55:08;4.68;;;2.40;;
22543;SDS011;11438;52.044;8.716;2022-10-19T03:57:34;4.35;;;2.50;;
22543;SDS011;11438;52.044;8.716;2022-10-19T04:00:00;4.80;;;2.60;;
22543;SDS011;11438;52.044;8.716;2022-10-19T04:02:26;4.70;;;2.45;;
22543;SDS011;11438;52.044;8.716;2022-10-19T04:04:52;5.45;;;2.63;;
22543;SDS011;11438;52.044;8.716;2022-10-19T04:07:18;3.78;;;2.28;;
22543;SDS011;11438;52.044;8.716;2022-10-19T04:09:44;10.02;;;2.50;;
22543;SDS011;11438;52.044;8.716;2022-10-19T04:12:09;4.63;;;2.40;;
22543;SDS011;11438;52.044;8.716;2022-10-19T04:14:35;3.88;;;2.50;;
22543;SDS011;11438;52.044;8.716;2022-10-19T04:17:02;5.90;;;2.70;;
22543;SDS011;11438;52.044;8.716;2022-10-19T04:19:28;4.68;;;2.33;;
22543;SDS011;11438;52.044;8.716;2022-10-19T04:21:54;3.80;;;2.40;;
22543;SDS011;11438;52.044;8.716;2022-10-19T04:24:20;5.45;;;3.10;;
22543;SDS011;11438;52.044;8.716;2022-10-19T04:26:49;4.05;;;2.50;;
22543;SDS011;11438;52.044;8.716;2022-10-19T04:29:16;6.93;;;2.53;;
22543;SDS011;11438;52.044;8.716;2022-10-19T04:31:43;4.30;;;2.65;;
22543;SDS011;11438;52.044;8.716;2022-10-19T04:34:09;5.07;;;2.42;;
22543;SDS011;11438;52.044;8.716;2022-10-19T04:36:36;4.15;;;2.53;;
22543;SDS011;11438;52.044;8.716;2022-10-19T04:39:02;5.28;;;3.10;;
22543;SDS011;11438;52.044;8.716;2022-10-19T04:41:28;4.85;;;2.90;;
22543;SDS011;11438;52.044;8.716;2022-10-19T04:43:58;5.85;;;2.80;;
22543;SDS011;11438;52.044;8.716;2022-10-19T04:46:25;5.93;;;3.10;;
22543;SDS011;11438;52.044;8.716;2022-10-19T04:48:52;3.28;;;2.22;;
22543;SDS011;11438;52.044;8.716;2022-10-19T04:51:18;7.47;;;2.88;;
22543;SDS011;11438;52.044;8.716;2022-10-19T04:53:44;5.00;;;2.67;;
22543;SDS011;11438;52.044;8.716;2022-10-19T04:56:11;4.53;;;2.63;;
22543;SDS011;11438;52.044;8.716;2022-10-19T04:58:39;5.65;;;3.20;;
22543;SDS011;11438;52.044;8.716;2022-10-19T05:03:33;5.22;;;3.00;;
22543;SDS011;11438;52.044;8.716;2022-10-19T05:05:59;5.68;;;3.38;;
22543;SDS011;11438;52.044;8.716;2022-10-19T05:08:24;5.53;;;3.45;;
22543;SDS011;11438;52.044;8.716;2022-10-19T05:10:50;3.95;;;2.83;;
22543;SDS011;11438;52.044;8.716;2022-10-19T05:13:16;4.90;;;2.92;;
22543;SDS011;11438;52.044;8.716;2022-10-19T05:15:41;6.97;;;3.00;;
22543;SDS011;11438;52.044;8.716;2022-10-19T05:18:07;5.15;;;3.15;;
22543;SDS011;11438;52.044;8.716;2022-10-19T05:20:32;5.18;;;2.85;;
22543;SDS011;11438;52.044;8.716;2022-10-19T05:22:58;4.93;;;3.10;;
22543;SDS011;11438;52.044;8.716;2022-10-19T05:25:23;4.80;;;3.10;;
22543;SDS011;11438;52.044;8.716;2022-10-19T05:27:50;8.25;;;3.22;;
22543;SDS011;11438;52.044;8.716;2022-10-19T05:30:16;4.88;;;3.10;;
22543;SDS011;11438;52.044;8.716;2022-10-19T05:32:42;4.03;;;2.80;;
22543;SDS011;11438;52.044;8.716;2022-10-19T05:35:08;4.93;;;2.95;;
22543;SDS011;11438;52.044;8.716;2022-10-19T05:37:34;7.20;;;2.97;;
22543;SDS011;11438;52.044;8.716;2022-10-19T05:39:59;5.50;;;2.97;;
22543;SDS011;11438;52.044;8.716;2022-10-19T05:42:25;4.72;;;3.00;;
22543;SDS011;11438;52.044;8.716;2022-10-19T05:44:52;6.20;;;3.88;;
22543;SDS011;11438;52.044;8.716;2022-10-19T05:47:17;5.30;;;3.53;;
22543;SDS011;11438;52.044;8.716;2022-10-19T05:49:43;6.85;;;3.38;;
22543;SDS011;11438;52.044;8.716;2022-10-19T05:52:08;6.30;;;3.38;;
22543;SDS011;11438;52.044;8.716;2022-10-19T05:54:35;3.35;;;2.63;;
22543;SDS011;11438;52.044;8.716;2022-10-19T05:57:01;4.63;;;3.08;;
22543;SDS011;11438;52.044;8.716;2022-10-19T05:59:26;5.78;;;3.30;;
22543;SDS011;11438;52.044;8.716;2022-10-19T06:01:52;6.07;;;3.40;;
22543;SDS011;11438;52.044;8.716;2022-10-19T06:04:18;4.95;;;3.00;;
22543;SDS011;11438;52.044;8.716;2022-10-19T06:06:43;5.70;;;3.38;;
22543;SDS011;11438;52.044;8.716;2022-10-19T06:09:10;5.05;;;3.40;;
22543;SDS011;11438;52.044;8.716;2022-10-19T06:11:37;6.07;;;3.33;;
22543;SDS011;11438;52.044;8.716;2022-10-19T06:14:06;5.53;;;3.70;;
22543;SDS011;11438;52.044;8.716;2022-10-19T06:16:35;4.40;;;3.13;;
22543;SDS011;11438;52.044;8.716;2022-10-19T06:19:01;6.32;;;3.40;;
22543;SDS011;11438;52.044;8.716;2022-10-19T06:21:28;6.20;;;3.92;;
22543;SDS011;11438;52.044;8.716;2022-10-19T06:23:56;6.63;;;3.78;;
22543;SDS011;11438;52.044;8.716;2022-10-19T06:26:23;5.25;;;3.88;;
22543;SDS011;11438;52.044;8.716;2022-10-19T06:28:49;6.72;;;3.35;;
22543;SDS011;11438;52.044;8.716;2022-10-19T06:31:15;5.78;;;3.30;;
22543;SDS011;11438;52.044;8.716;2022-10-19T06:33:42;8.43;;;4.40;;
22543;SDS011;11438;52.044;8.716;2022-10-19T06:36:09;6.47;;;3.35;;
22543;SDS011;11438;52.044;8.716;2022-10-19T06:38:40;7.32;;;4.03;;
22543;SDS011;11438;52.044;8.716;2022-10-19T06:41:06;6.70;;;4.28;;
22543;SDS011;11438;52.044;8.716;2022-10-19T06:43:32;7.95;;;4.30;;
22543;SDS011;11438;52.044;8.716;2022-10-19T06:46:02;6.63;;;4.60;;
22543;SDS011;11438;52.044;8.716;2022-10-19T06:48:34;6.15;;;4.18;;
22543;SDS011;11438;52.044;8.716;2022-10-19T06:51:01;7.85;;;4.55;;
22543;SDS011;11438;52.044;8.716;2022-10-19T06:53:27;6.05;;;4.15;;
22543;SDS011;11438;52.044;8.716;2022-10-19T06:55:57;9.65;;;5.30;;
22543;SDS011;11438;52.044;8.716;2022-10-19T06:58:23;6.55;;;4.38;;
22543;SDS011;11438;52.044;8.716;2022-10-19T07:00:56;7.47;;;4.40;;
22543;SDS011;11438;52.044;8.716;2022-10-19T07:03:23;9.85;;;4.72;;
22543;SDS011;11438;52.044;8.716;2022-10-19T07:05:56;13.27;;;5.53;;
22543;SDS011;11438;52.044;8.716;2022-10-19T07:08:24;8.98;;;4.85;;
22543;SDS011;11438;52.044;8.716;2022-10-19T07:10:55;11.27;;;5.70;;
22543;SDS011;11438;52.044;8.716;2022-10-19T07:13:22;6.85;;;4.25;;
22543;SDS011;11438;52.044;8.716;2022-10-19T07:15:48;9.60;;;4.90;;
22543;SDS011;11438;52.044;8.716;2022-10-19T07:18:14;7.85;;;4.93;;
22543;SDS011;11438;52.044;8.716;2022-10-19T07:20:39;7.72;;;4.88;;
22543;SDS011;11438;52.044;8.716;2022-10-19T07:23:05;6.72;;;3.97;;
22543;SDS011;11438;52.044;8.716;2022-10-19T07:25:31;8.57;;;4.93;;
22543;SDS011;11438;52.044;8.716;2022-10-19T07:27:57;7.47;;;4.63;;
22543;SDS011;11438;52.044;8.716;2022-10-19T07:30:23;9.10;;;4.65;;
22543;SDS011;11438;52.044;8.716;2022-10-19T07:32:48;10.43;;;4.55;;
22543;SDS011;11438;52.044;8.716;2022-10-19T07:35:14;7.53;;;5.07;;
22543;SDS011;11438;52.044;8.716;2022-10-19T07:37:40;8.05;;;5.18;;
22543;SDS011;11438;52.044;8.716;2022-10-19T07:40:05;9.77;;;4.30;;
22543;SDS011;11438;52.044;8.716;2022-10-19T07:42:31;12.25;;;5.05;;
22543;SDS011;11438;52.044;8.716;2022-10-19T07:44:57;9.82;;;5.18;;
22543;SDS011;11438;52.044;8.716;2022-10-19T07:47:23;6.82;;;4.68;;
22543;SDS011;11438;52.044;8.716;2022-10-19T07:49:48;6.00;;;4.22;;
22543;SDS011;11438;52.044;8.716;2022-10-19T07:52:14;9.20;;;4.78;;
22543;SDS011;11438;52.044;8.716;2022-10-19T07:54:39;7.50;;;4.55;;
22543;SDS011;11438;52.044;8.716;2022-10-19T07:57:05;6.72;;;4.28;;
22543;SDS011;11438;52.044;8.716;2022-10-19T07:59:30;5.82;;;3.85;;
22543;SDS011;11438;52.044;8.716;2022-10-19T08:01:56;6.70;;;4.10;;
22543;SDS011;11438;52.044;8.716;2022-10-19T08:04:22;6.97;;;4.07;;
22543;SDS011;11438;52.044;8.716;2022-10-19T08:06:48;11.25;;;4.80;;
22543;SDS011;11438;52.044;8.716;2022-10-19T08:09:14;7.18;;;4.72;;
22543;SDS011;11438;52.044;8.716;2022-10-19T08:11:39;7.22;;;4.32;;
22543;SDS011;11438;52.044;8.716;2022-10-19T08:14:05;7.63;;;4.43;;
22543;SDS011;11438;52.044;8.716;2022-10-19T08:19:03;6.68;;;4.63;;
22543;SDS011;11438;52.044;8.716;2022-10-19T08:21:33;6.85;;;4.40;;
22543;SDS011;11438;52.044;8.716;2022-10-19T08:24:00;7.53;;;4.82;;
22543;SDS011;11438;52.044;8.716;2022-10-19T08:26:29;10.50;;;4.43;;
22543;SDS011;11438;52.044;8.716;2022-10-19T08:29:03;9.73;;;4.32;;
22543;SDS011;11438;52.044;8.716;2022-10-19T08:31:31;6.90;;;4.63;;
22543;SDS011;11438;52.044;8.716;2022-10-19T08:33:57;8.48;;;5.05;;
22543;SDS011;11438;52.044;8.716;2022-10-19T08:36:22;9.63;;;4.97;;
22543;SDS011;11438;52.044;8.716;2022-10-19T08:38:48;6.22;;;4.85;;
22543;SDS011;11438;52.044;8.716;2022-10-19T08:46:48;6.97;;;4.65;;
22543;SDS011;11438;52.044;8.716;2022-10-19T08:49:47;6.53;;;4.47;;
22543;SDS011;11438;52.044;8.716;2022-10-19T08:52:15;8.18;;;4.80;;
22543;SDS011;11438;52.044;8.716;2022-10-19T08:57:36;6.82;;;4.50;;
22543;SDS011;11438;52.044;8.716;2022-10-19T09:00:34;7.55;;;4.32;;
22543;SDS011;11438;52.044;8.716;2022-10-19T09:08:21;8.48;;;5.00;;
22543;SDS011;11438;52.044;8.716;2022-10-19T09:10:48;9.85;;;5.13;;
22543;SDS011;11438;52.044;8.716;2022-10-19T09:16:12;8.77;;;4.13;;
22543;SDS011;11438;52.044;8.716;2022-10-19T09:18:41;8.45;;;4.50;;
22543;SDS011;11438;52.044;8.716;2022-10-19T09:24:32;6.90;;;4.45;;
22543;SDS011;11438;52.044;8.716;2022-10-19T09:27:06;8.52;;;4.03;;
22543;SDS011;11438;52.044;8.716;2022-10-19T09:29:47;7.15;;;4.00;;
22543;SDS011;11438;52.044;8.716;2022-10-19T09:32:24;7.03;;;3.97;;
22543;SDS011;11438;52.044;8.716;2022-10-19T09:35:03;9.15;;;4.03;;
22543;SDS011;11438;52.044;8.716;2022-10-19T09:37:39;5.70;;;3.00;;
22543;SDS011;11438;52.044;8.716;2022-10-19T09:40:13;4.95;;;2.22;;
22543;SDS011;11438;52.044;8.716;2022-10-19T09:42:42;6.78;;;2.63;;
22543;SDS011;11438;52.044;8.716;2022-10-19T09:48:01;4.40;;;2.03;;
22543;SDS011;11438;52.044;8.716;2022-10-19T09:50:29;5.05;;;2.10;;
22543;SDS011;11438;52.044;8.716;2022-10-19T09:52:59;5.63;;;1.95;;
22543;SDS011;11438;52.044;8.716;2022-10-19T09:55:34;5.70;;;1.77;;
22543;SDS011;11438;52.044;8.716;2022-10-19T09:58:05;6.60;;;2.13;;
22543;SDS011;11438;52.044;8.716;2022-10-19T10:00:38;9.00;;;1.73;;
22543;SDS011;11438;52.044;8.716;2022-10-19T10:03:06;3.45;;;1.50;;
22543;SDS011;11438;52.044;8.716;2022-10-19T10:05:45;4.60;;;1.10;;
22543;SDS011;11438;52.044;8.716;2022-10-19T10:08:29;2.20;;;0.95;;
22543;SDS011;11438;52.044;8.716;2022-10-19T10:11:01;7.30;;;0.98;;
22543;SDS011;11438;52.044;8.716;2022-10-19T10:13:35;3.95;;;0.80;;
22543;SDS011;11438;52.044;8.716;2022-10-19T10:16:05;4.55;;;1.17;;
22543;SDS011;11438;52.044;8.716;2022-10-19T10:18:37;3.97;;;1.00;;
22543;SDS011;11438;52.044;8.716;2022-10-19T10:21:24;2.78;;;0.90;;
22543;SDS011;11438;52.044;8.716;2022-10-19T10:26:37;8.65;;;1.60;;
22543;SDS011;11438;52.044;8.716;2022-10-19T10:29:14;3.97;;;1.00;;
22543;SDS011;11438;52.044;8.716;2022-10-19T10:31:43;3.40;;;1.15;;
22543;SDS011;11438;52.044;8.716;2022-10-19T10:34:29;4.13;;;1.00;;
22543;SDS011;11438;52.044;8.716;2022-10-19T10:36:57;2.00;;;0.70;;
22543;SDS011;11438;52.044;8.716;2022-10-19T10:39:25;5.80;;;0.98;;
22543;SDS011;11438;52.044;8.716;2022-10-19T10:41:52;4.72;;;0.90;;
22543;SDS011;11438;52.044;8.716;2022-10-19T10:44:22;4.45;;;0.98;;
22543;SDS011;11438;52.044;8.716;2022-10-19T10:47:00;2.58;;;0.90;;
22543;SDS011;11438;52.044;8.716;2022-10-19T10:49:28;3.28;;;0.88;;
22543;SDS011;11438;52.044;8.716;2022-10-19T10:52:11;4.10;;;0.90;;
22543;SDS011;11438;52.044;8.716;2022-10-19T10:54:39;3.20;;;0.60;;
22543;SDS011;11438;52.044;8.716;2022-10-19T11:07:46;3.33;;;0.63;;
22543;SDS011;11438;52.044;8.716;2022-10-19T11:10:19;2.75;;;0.70;;
22543;SDS011;11438;52.044;8.716;2022-10-19T11:15:38;3.90;;;0.68;;
22543;SDS011;11438;52.044;8.716;2022-10-19T11:18:16;2.85;;;0.55;;
22543;SDS011;11438;52.044;8.716;2022-10-19T11:21:11;2.63;;;0.65;;
22543;SDS011;11438;52.044;8.716;2022-10-19T11:26:34;3.60;;;0.70;;
22543;SDS011;11438;52.044;8.716;2022-10-19T11:38:17;5.80;;;1.20;;
22543;SDS011;11438;52.044;8.716;2022-10-19T11:54:47;2.92;;;0.98;;
22543;SDS011;11438;52.044;8.716;2022-10-19T11:57:20;3.42;;;1.10;;
22543;SDS011;11438;52.044;8.716;2022-10-19T12:07:39;2.97;;;1.00;;
22543;SDS011;11438;52.044;8.716;2022-10-19T12:10:12;3.58;;;1.30;;
22543;SDS011;11438;52.044;8.716;2022-10-19T12:12:48;6.07;;;1.10;;
22543;SDS011;11438;52.044;8.716;2022-10-19T12:18:23;3.42;;;1.20;;
22543;SDS011;11438;52.044;8.716;2022-10-19T12:21:03;2.08;;;1.00;;
22543;SDS011;11438;52.044;8.716;2022-10-19T12:23:35;2.90;;;1.08;;
22543;SDS011;11438;52.044;8.716;2022-10-19T12:26:07;2.90;;;1.00;;
22543;SDS011;11438;52.044;8.716;2022-10-19T12:28:39;3.60;;;1.27;;
22543;SDS011;11438;52.044;8.716;2022-10-19T12:31:08;3.78;;;0.98;;
22543;SDS011;11438;52.044;8.716;2022-10-19T12:41:22;6.18;;;1.10;;
22543;SDS011;11438;52.044;8.716;2022-10-19T12:46:43;2.45;;;0.85;;
22543;SDS011;11438;52.044;8.716;2022-10-19T12:51:55;5.20;;;1.00;;
22543;SDS011;11438;52.044;8.716;2022-10-19T12:54:32;3.88;;;1.00;;
22543;SDS011;11438;52.044;8.716;2022-10-19T12:57:00;5.18;;;0.90;;
22543;SDS011;11438;52.044;8.716;2022-10-19T13:01:56;3.78;;;0.90;;
22543;SDS011;11438;52.044;8.716;2022-10-19T13:04:26;2.40;;;0.80;;
22543;SDS011;11438;52.044;8.716;2022-10-19T13:09:39;5.18;;;1.13;;
22543;SDS011;11438;52.044;8.716;2022-10-19T13:14:45;4.63;;;1.17;;
22543;SDS011;11438;52.044;8.716;2022-10-19T13:22:39;3.25;;;1.00;;
22543;SDS011;11438;52.044;8.716;2022-10-19T13:27:42;2.95;;;0.95;;
22543;SDS011;11438;52.044;8.716;2022-10-19T13:36:04;2.10;;;0.60;;
22543;SDS011;11438;52.044;8.716;2022-10-19T13:44:02;3.47;;;0.90;;
22543;SDS011;11438;52.044;8.716;2022-10-19T13:46:42;3.90;;;0.90;;
22543;SDS011;11438;52.044;8.716;2022-10-19T13:52:18;4.28;;;0.98;;
22543;SDS011;11438;52.044;8.716;2022-10-19T14:00:29;2.35;;;0.90;;
22543;SDS011;11438;52.044;8.716;2022-10-19T14:03:37;3.25;;;1.02;;
22543;SDS011;11438;52.044;8.716;2022-10-19T14:08:52;5.35;;;0.80;;
22543;SDS011;11438;52.044;8.716;2022-10-19T14:11:38;3.55;;;1.10;;
22543;SDS011;11438;52.044;8.716;2022-10-19T14:14:16;2.15;;;1.05;;
22543;SDS011;11438;52.044;8.716;2022-10-19T14:16:45;4.05;;;0.95;;
22543;SDS011;11438;52.044;8.716;2022-10-19T14:19:11;5.13;;;0.90;;
22543;SDS011;11438;52.044;8.716;2022-10-19T14:21:38;6.50;;;0.90;;
22543;SDS011;11438;52.044;8.716;2022-10-19T14:24:18;6.97;;;1.00;;
22543;SDS011;11438;52.044;8.716;2022-10-19T14:26:45;3.20;;;0.90;;
22543;SDS011;11438;52.044;8.716;2022-10-19T14:29:11;3.47;;;0.90;;
22543;SDS011;11438;52.044;8.716;2022-10-19T14:31:37;2.83;;;0.90;;
22543;SDS011;11438;52.044;8.716;2022-10-19T14:34:03;1.52;;;0.80;;
22543;SDS011;11438;52.044;8.716;2022-10-19T14:36:37;3.38;;;0.85;;
22543;SDS011;11438;52.044;8.716;2022-10-19T14:39:10;3.42;;;1.00;;
22543;SDS011;11438;52.044;8.716;2022-10-19T14:41:50;3.75;;;1.05;;
22543;SDS011;11438;52.044;8.716;2022-10-19T14:44:40;3.13;;;0.93;;
22543;SDS011;11438;52.044;8.716;2022-10-19T14:47:14;5.95;;;1.00;;
22543;SDS011;11438;52.044;8.716;2022-10-19T14:49:42;3.60;;;0.93;;
22543;SDS011;11438;52.044;8.716;2022-10-19T14:52:13;2.47;;;1.00;;
22543;SDS011;11438;52.044;8.716;2022-10-19T14:54:44;4.72;;;0.98;;
22543;SDS011;11438;52.044;8.716;2022-10-19T14:59:49;2.25;;;0.90;;
22543;SDS011;11438;52.044;8.716;2022-10-19T15:02:18;2.78;;;0.80;;
22543;SDS011;11438;52.044;8.716;2022-10-19T15:04:47;3.28;;;0.77;;
22543;SDS011;11438;52.044;8.716;2022-10-19T15:07:22;3.80;;;1.00;;
22543;SDS011;11438;52.044;8.716;2022-10-19T15:09:55;3.08;;;0.73;;
22543;SDS011;11438;52.044;8.716;2022-10-19T15:12:26;3.67;;;0.90;;
22543;SDS011;11438;52.044;8.716;2022-10-19T15:14:54;5.88;;;0.90;;
22543;SDS011;11438;52.044;8.716;2022-10-19T15:19:55;3.25;;;0.93;;
22543;SDS011;11438;52.044;8.716;2022-10-19T15:24:57;4.82;;;0.85;;
22543;SDS011;11438;52.044;8.716;2022-10-19T15:27:33;2.10;;;0.75;;
22543;SDS011;11438;52.044;8.716;2022-10-19T15:30:02;3.20;;;0.95;;
22543;SDS011;11438;52.044;8.716;2022-10-19T15:32:53;3.92;;;0.77;;
22543;SDS011;11438;52.044;8.716;2022-10-19T15:35:20;3.45;;;0.80;;
22543;SDS011;11438;52.044;8.716;2022-10-19T15:38:03;2.20;;;0.70;;
22543;SDS011;11438;52.044;8.716;2022-10-19T15:40:42;3.58;;;0.70;;
22543;SDS011;11438;52.044;8.716;2022-10-19T15:46:01;3.90;;;0.80;;
22543;SDS011;11438;52.044;8.716;2022-10-19T15:53:58;1.83;;;0.60;;
22543;SDS011;11438;52.044;8.716;2022-10-19T15:56:26;4.28;;;0.70;;
22543;SDS011;11438;52.044;8.716;2022-10-19T15:58:55;4.28;;;0.70;;
22543;SDS011;11438;52.044;8.716;2022-10-19T16:01:26;4.15;;;0.90;;
22543;SDS011;11438;52.044;8.716;2022-10-19T16:03:54;3.92;;;0.90;;
22543;SDS011;11438;52.044;8.716;2022-10-19T16:06:21;5.05;;;1.05;;
22543;SDS011;11438;52.044;8.716;2022-10-19T16:08:49;2.45;;;0.98;;
22543;SDS011;11438;52.044;8.716;2022-10-19T16:11:16;4.15;;;1.00;;
22543;SDS011;11438;52.044;8.716;2022-10-19T16:13:43;2.40;;;1.02;;
22543;SDS011;11438;52.044;8.716;2022-10-19T16:16:10;2.28;;;0.70;;
22543;SDS011;11438;52.044;8.716;2022-10-19T16:18:42;4.22;;;1.23;;
22543;SDS011;11438;52.044;8.716;2022-10-19T16:21:07;4.45;;;1.20;;
22543;SDS011;11438;52.044;8.716;2022-10-19T16:23:33;4.10;;;1.05;;
22543;SDS011;11438;52.044;8.716;2022-10-19T16:26:00;4.18;;;1.10;;
22543;SDS011;11438;52.044;8.716;2022-10-19T16:28:25;3.92;;;1.15;;
22543;SDS011;11438;52.044;8.716;2022-10-19T16:30:52;2.65;;;1.17;;
22543;SDS011;11438;52.044;8.716;2022-10-19T16:33:18;2.25;;;1.10;;
22543;SDS011;11438;52.044;8.716;2022-10-19T16:35:43;3.30;;;1.20;;
22543;SDS011;11438;52.044;8.716;2022-10-19T16:38:09;1.95;;;1.02;;
22543;SDS011;11438;52.044;8.716;2022-10-19T16:40:35;1.80;;;1.20;;
22543;SDS011;11438;52.044;8.716;2022-10-19T16:43:00;2.60;;;1.42;;
22543;SDS011;11438;52.044;8.716;2022-10-19T16:45:26;2.70;;;1.80;;
22543;SDS011;11438;52.044;8.716;2022-10-19T16:47:52;4.13;;;1.50;;
22543;SDS011;11438;52.044;8.716;2022-10-19T16:50:18;4.43;;;1.60;;
22543;SDS011;11438;52.044;8.716;2022-10-19T16:52:43;5.13;;;2.05;;
22543;SDS011;11438;52.044;8.716;2022-10-19T16:55:09;5.82;;;2.30;;
22543;SDS011;11438;52.044;8.716;2022-10-19T16:57:35;5.15;;;1.77;;
22543;SDS011;11438;52.044;8.716;2022-10-19T17:00:02;4.20;;;1.90;;
22543;SDS011;11438;52.044;8.716;2022-10-19T17:02:29;3.53;;;1.73;;
22543;SDS011;11438;52.044;8.716;2022-10-19T17:04:55;3.65;;;1.92;;
22543;SDS011;11438;52.044;8.716;2022-10-19T17:07:20;5.00;;;1.80;;
22543;SDS011;11438;52.044;8.716;2022-10-19T17:09:46;5.38;;;1.60;;
22543;SDS011;11438;52.044;8.716;2022-10-19T17:12:12;5.03;;;1.92;;
22543;SDS011;11438;52.044;8.716;2022-10-19T17:14:39;4.65;;;1.95;;
22543;SDS011;11438;52.044;8.716;2022-10-19T17:17:06;5.00;;;2.00;;
22543;SDS011;11438;52.044;8.716;2022-10-19T17:19:32;4.95;;;2.35;;
22543;SDS011;11438;52.044;8.716;2022-10-19T17:21:58;4.03;;;2.10;;
22543;SDS011;11438;52.044;8.716;2022-10-19T17:24:25;4.70;;;1.90;;
22543;SDS011;11438;52.044;8.716;2022-10-19T17:26:51;7.32;;;1.83;;
22543;SDS011;11438;52.044;8.716;2022-10-19T17:29:17;4.13;;;1.80;;
22543;SDS011;11438;52.044;8.716;2022-10-19T17:31:43;5.03;;;2.10;;
22543;SDS011;11438;52.044;8.716;2022-10-19T17:34:09;4.25;;;1.92;;
22543;SDS011;11438;52.044;8.716;2022-10-19T17:36:36;4.43;;;2.00;;
22543;SDS011;11438;52.044;8.716;2022-10-19T17:39:09;5.15;;;2.10;;
22543;SDS011;11438;52.044;8.716;2022-10-19T17:41:47;3.47;;;1.55;;
22543;SDS011;11438;52.044;8.716;2022-10-19T17:44:13;2.95;;;1.90;;
22543;SDS011;11438;52.044;8.716;2022-10-19T17:46:40;5.25;;;2.20;;